createdAt,value
2018-04-24T00:00:24.356Z,13.78
2018-04-24T00:01:24.271Z,13.85
2018-04-24T00:03:17.041Z,13.85
2018-04-24T00:04:16.984Z,13.81
2018-04-24T00:06:09.725Z,13.79
2018-04-24T00:07:09.642Z,13.78
2018-04-24T00:09:02.533Z,13.71
2018-04-24T00:10:02.444Z,13.73
2018-04-24T00:11:55.207Z,13.64
2018-04-24T00:12:55.130Z,13.67
2018-04-24T00:14:47.899Z,13.69
2018-04-24T00:15:47.812Z,13.63
2018-04-24T00:17:40.565Z,13.66
2018-04-24T00:18:40.489Z,13.55
2018-04-24T00:20:33.379Z,13.64
2018-04-24T00:21:33.291Z,13.54
2018-04-24T00:23:26.168Z,13.46
2018-04-24T00:24:26.089Z,13.55
2018-04-24T00:26:18.858Z,13.46
2018-04-24T00:27:18.773Z,13.51
2018-04-24T00:29:11.691Z,13.52
2018-04-24T00:30:11.608Z,13.39
2018-04-24T00:32:04.367Z,13.32
2018-04-24T00:33:04.286Z,13.32
2018-04-24T00:34:57.176Z,13.33
2018-04-24T00:35:57.093Z,13.30
2018-04-24T00:37:49.850Z,13.26
2018-04-24T00:38:49.775Z,13.29
2018-04-24T00:40:43.146Z,13.25
2018-04-24T00:41:43.061Z,13.17
2018-04-24T00:43:35.818Z,13.26
2018-04-24T00:44:35.742Z,13.20
2018-04-24T00:46:28.632Z,13.23
2018-04-24T00:47:28.547Z,13.25
2018-04-24T00:49:21.445Z,13.10
2018-04-24T00:50:21.358Z,13.11
2018-04-24T00:52:14.130Z,13.08
2018-04-24T00:53:14.055Z,13.01
2018-04-24T00:55:06.813Z,12.97
2018-04-24T00:56:06.729Z,12.86
2018-04-24T00:57:59.590Z,12.85
2018-04-24T00:58:59.526Z,12.86
2018-04-24T01:00:52.270Z,12.90
2018-04-24T01:01:52.186Z,12.83
2018-04-24T01:03:45.171Z,12.89
2018-04-24T01:04:45.094Z,12.82
2018-04-24T01:06:37.920Z,12.82
2018-04-24T01:07:37.777Z,12.83
2018-04-24T01:09:30.660Z,13.03
2018-04-24T01:10:30.551Z,13.05
2018-04-24T01:12:23.307Z,12.97
2018-04-24T01:13:23.234Z,12.97
2018-04-24T01:15:16.101Z,12.83
2018-04-24T01:16:16.014Z,12.83
2018-04-24T01:18:08.770Z,12.83
2018-04-24T01:19:08.696Z,12.74
2018-04-24T01:21:01.564Z,12.77
2018-04-24T01:22:01.477Z,12.77
2018-04-24T01:23:54.377Z,12.79
2018-04-24T01:24:54.273Z,12.78
2018-04-24T01:26:47.529Z,12.72
2018-04-24T01:27:47.445Z,12.72
2018-04-24T01:29:40.204Z,12.64
2018-04-24T01:30:40.127Z,12.70
2018-04-24T01:32:32.893Z,12.59
2018-04-24T01:33:32.805Z,12.57
2018-04-24T01:34:32.732Z,12.47
2018-04-24T01:35:32.660Z,12.45
2018-04-24T01:36:32.588Z,12.47
2018-04-24T01:37:32.515Z,12.39
2018-04-24T01:38:32.441Z,12.35
2018-04-24T01:39:32.371Z,12.34
2018-04-24T01:40:32.299Z,12.38
2018-04-24T01:41:32.220Z,12.31
2018-04-24T01:42:32.151Z,12.28
2018-04-24T01:43:32.074Z,12.24
2018-04-24T01:44:32.006Z,12.34
2018-04-24T01:45:31.972Z,12.24
2018-04-24T01:46:31.858Z,12.34
2018-04-24T01:47:31.789Z,12.32
2018-04-24T01:48:31.713Z,12.32
2018-04-24T01:49:31.642Z,12.29
2018-04-24T01:50:31.571Z,12.39
2018-04-24T01:51:31.494Z,12.24
2018-04-24T01:52:31.423Z,12.28
2018-04-24T01:53:31.349Z,12.31
2018-04-24T01:54:31.276Z,12.34
2018-04-24T01:55:31.203Z,12.29
2018-04-24T01:56:31.132Z,12.32
2018-04-24T01:57:31.052Z,12.34
2018-04-24T01:58:30.983Z,12.38
2018-04-24T01:59:30.910Z,12.29
2018-04-24T02:00:30.837Z,12.31
2018-04-24T02:01:30.763Z,12.24
2018-04-24T02:02:30.691Z,12.24
2018-04-24T02:03:30.619Z,12.21
2018-04-24T02:04:30.544Z,12.27
2018-04-24T02:05:30.473Z,12.21
2018-04-24T02:06:30.400Z,12.20
2018-04-24T02:07:30.327Z,12.23
2018-04-24T02:08:30.255Z,12.24
2018-04-24T02:09:30.177Z,12.27
2018-04-24T02:10:30.103Z,12.20
2018-04-24T02:11:30.033Z,12.21
2018-04-24T02:12:29.960Z,12.14
2018-04-24T02:13:29.894Z,12.09
2018-04-24T02:14:29.815Z,12.16
2018-04-24T02:15:29.744Z,12.17
2018-04-24T02:16:29.669Z,12.17
2018-04-24T02:17:29.596Z,12.16
2018-04-24T02:18:29.521Z,12.09
2018-04-24T02:19:29.447Z,12.13
2018-04-24T02:20:29.372Z,12.05
2018-04-24T02:21:29.304Z,12.09
2018-04-24T02:22:29.229Z,12.10
2018-04-24T02:23:29.156Z,12.16
2018-04-24T02:24:29.089Z,12.17
2018-04-24T02:25:29.011Z,12.13
2018-04-24T02:26:28.941Z,12.17
2018-04-24T02:27:28.863Z,12.05
2018-04-24T02:28:28.789Z,11.95
2018-04-24T02:29:28.722Z,12.01
2018-04-24T02:30:28.650Z,11.91
2018-04-24T02:31:28.575Z,11.88
2018-04-24T02:32:28.500Z,11.88
2018-04-24T02:33:28.426Z,11.82
2018-04-24T02:34:28.433Z,11.88
2018-04-24T02:35:28.279Z,11.95
2018-04-24T02:36:28.206Z,11.88
2018-04-24T02:37:28.133Z,11.90
2018-04-24T02:38:28.060Z,11.83
2018-04-24T02:39:27.985Z,11.76
2018-04-24T02:40:27.919Z,11.75
2018-04-24T02:41:27.843Z,11.72
2018-04-24T02:42:27.770Z,11.69
2018-04-24T02:43:27.694Z,11.62
2018-04-24T02:44:27.622Z,11.62
2018-04-24T02:45:27.548Z,11.58
2018-04-24T02:46:27.476Z,11.61
2018-04-24T02:47:27.402Z,11.61
2018-04-24T02:48:27.327Z,11.61
2018-04-24T02:49:27.254Z,11.72
2018-04-24T02:50:27.184Z,11.70
2018-04-24T02:51:27.110Z,11.75
2018-04-24T02:52:27.035Z,11.60
2018-04-24T02:53:26.963Z,11.60
2018-04-24T02:54:26.888Z,11.61
2018-04-24T02:55:26.816Z,11.78
2018-04-24T02:56:26.741Z,11.70
2018-04-24T02:57:26.668Z,11.72
2018-04-24T02:58:26.593Z,11.60
2018-04-24T02:59:26.525Z,11.61
2018-04-24T03:00:26.447Z,11.46
2018-04-24T03:01:26.374Z,11.33
2018-04-24T03:02:26.301Z,11.15
2018-04-24T03:03:26.228Z,11.09
2018-04-24T03:04:26.160Z,11.07
2018-04-24T03:05:26.081Z,11.10
2018-04-24T03:06:26.008Z,11.15
2018-04-24T03:07:25.933Z,11.18
2018-04-24T03:08:25.860Z,11.07
2018-04-24T03:09:25.793Z,10.97
2018-04-24T03:10:25.715Z,11.09
2018-04-24T03:11:25.640Z,10.86
2018-04-24T03:12:25.566Z,10.99
2018-04-24T03:13:25.493Z,10.94
2018-04-24T03:14:25.415Z,10.85
2018-04-24T03:15:25.349Z,10.74
2018-04-24T03:16:25.272Z,10.78
2018-04-24T03:17:25.197Z,10.73
2018-04-24T03:18:25.124Z,10.68
2018-04-24T03:19:25.070Z,10.52
2018-04-24T03:20:24.978Z,10.53
2018-04-24T03:21:24.904Z,10.51
2018-04-24T03:22:24.832Z,10.52
2018-04-24T03:23:24.755Z,10.71
2018-04-24T03:24:24.681Z,10.70
2018-04-24T03:25:24.610Z,10.82
2018-04-24T03:26:24.535Z,10.70
2018-04-24T03:27:24.465Z,10.67
2018-04-24T03:28:24.386Z,10.56
2018-04-24T03:29:24.310Z,10.53
2018-04-24T03:30:24.242Z,10.61
2018-04-24T03:31:24.176Z,10.63
2018-04-24T03:32:24.091Z,10.68
2018-04-24T03:33:24.024Z,10.67
2018-04-24T03:34:23.947Z,10.71
2018-04-24T03:35:23.869Z,10.79
2018-04-24T03:36:23.798Z,10.74
2018-04-24T03:37:23.719Z,10.79
2018-04-24T03:38:23.648Z,10.63
2018-04-24T03:39:23.577Z,10.74
2018-04-24T03:40:23.502Z,10.66
2018-04-24T03:41:23.434Z,10.66
2018-04-24T03:42:23.354Z,10.55
2018-04-24T03:43:23.283Z,10.55
2018-04-24T03:44:23.205Z,10.66
2018-04-24T03:45:23.133Z,10.66
2018-04-24T03:46:23.059Z,10.68
2018-04-24T03:47:22.984Z,10.61
2018-04-24T03:48:22.910Z,10.70
2018-04-24T03:49:22.851Z,10.71
2018-04-24T03:50:22.763Z,10.70
2018-04-24T03:51:22.688Z,10.68
2018-04-24T03:52:22.614Z,10.68
2018-04-24T03:53:22.544Z,10.70
2018-04-24T03:54:22.479Z,10.74
2018-04-24T03:55:22.392Z,10.71
2018-04-24T03:56:22.320Z,10.73
2018-04-24T03:57:22.319Z,10.64
2018-04-24T03:58:22.173Z,10.74
2018-04-24T03:59:22.105Z,10.76
2018-04-24T04:00:22.022Z,10.68
2018-04-24T04:01:21.950Z,10.67
2018-04-24T04:02:21.875Z,10.68
2018-04-24T04:03:21.802Z,10.67
2018-04-24T04:04:21.729Z,10.56
2018-04-24T04:05:21.654Z,10.51
2018-04-24T04:06:21.579Z,10.47
2018-04-24T04:07:21.505Z,10.53
2018-04-24T04:08:21.435Z,10.51
2018-04-24T04:09:21.357Z,10.60
2018-04-24T04:10:21.284Z,10.56
2018-04-24T04:11:21.211Z,10.64
2018-04-24T04:12:21.140Z,10.56
2018-04-24T04:13:21.061Z,10.53
2018-04-24T04:14:20.993Z,10.56
2018-04-24T04:15:20.912Z,10.55
2018-04-24T04:16:20.841Z,10.53
2018-04-24T04:17:20.767Z,10.36
2018-04-24T04:18:20.692Z,10.36
2018-04-24T04:19:20.617Z,10.41
2018-04-24T04:20:20.542Z,10.26
2018-04-24T04:21:20.472Z,10.32
2018-04-24T04:22:20.394Z,10.32
2018-04-24T04:23:20.319Z,10.38
2018-04-24T04:24:20.244Z,10.38
2018-04-24T04:25:20.172Z,10.44
2018-04-24T04:26:20.097Z,10.40
2018-04-24T04:27:20.024Z,10.36
2018-04-24T04:28:19.948Z,10.29
2018-04-24T04:29:19.882Z,10.42
2018-04-24T04:30:19.803Z,10.40
2018-04-24T04:31:19.726Z,10.51
2018-04-24T04:32:19.662Z,10.63
2018-04-24T04:33:19.582Z,10.56
2018-04-24T04:34:19.508Z,10.63
2018-04-24T04:35:19.431Z,10.70
2018-04-24T04:36:19.355Z,10.70
2018-04-24T04:37:19.282Z,10.52
2018-04-24T04:38:19.208Z,10.53
2018-04-24T04:39:19.135Z,10.51
2018-04-24T04:40:19.061Z,10.52
2018-04-24T04:41:18.987Z,10.73
2018-04-24T04:42:18.912Z,10.68
2018-04-24T04:43:18.838Z,10.60
2018-04-24T04:44:18.765Z,10.56
2018-04-24T04:45:18.689Z,10.53
2018-04-24T04:46:18.614Z,10.60
2018-04-24T04:47:18.543Z,10.73
2018-04-24T04:48:18.468Z,10.70
2018-04-24T04:49:18.394Z,10.74
2018-04-24T04:50:18.319Z,10.73
2018-04-24T04:51:18.245Z,10.73
2018-04-24T04:52:18.172Z,10.67
2018-04-24T04:53:18.098Z,10.66
2018-04-24T04:54:18.026Z,10.70
2018-04-24T04:55:17.950Z,10.67
2018-04-24T04:56:17.876Z,10.70
2018-04-24T04:57:17.806Z,10.68
2018-04-24T04:58:17.725Z,10.71
2018-04-24T04:59:17.654Z,10.81
2018-04-24T05:00:17.579Z,10.78
2018-04-24T05:01:17.581Z,10.76
2018-04-24T05:02:17.431Z,10.66
2018-04-24T05:03:17.359Z,10.81
2018-04-24T05:04:17.282Z,10.85
2018-04-24T05:05:17.302Z,10.86
2018-04-24T05:06:17.132Z,10.81
2018-04-24T05:07:17.064Z,10.68
2018-04-24T05:08:16.990Z,10.76
2018-04-24T05:09:16.914Z,10.68
2018-04-24T05:10:16.839Z,10.76
2018-04-24T05:11:16.766Z,10.64
2018-04-24T05:12:16.692Z,10.70
2018-04-24T05:13:16.643Z,10.76
2018-04-24T05:14:16.543Z,10.76
2018-04-24T05:15:16.466Z,10.76
2018-04-24T05:16:16.395Z,10.66
2018-04-24T05:17:16.325Z,10.67
2018-04-24T05:18:16.251Z,10.67
2018-04-24T05:19:16.178Z,10.66
2018-04-24T05:20:16.101Z,10.70
2018-04-24T05:21:16.027Z,10.78
2018-04-24T05:22:15.956Z,10.86
2018-04-24T05:23:15.879Z,10.96
2018-04-24T05:24:15.805Z,10.92
2018-04-24T05:25:15.726Z,11.03
2018-04-24T05:26:15.658Z,11.00
2018-04-24T05:27:15.584Z,11.21
2018-04-24T05:28:15.510Z,11.17
2018-04-24T05:29:15.440Z,11.24
2018-04-24T05:30:15.362Z,11.25
2018-04-24T05:31:15.288Z,11.25
2018-04-24T05:32:15.215Z,11.22
2018-04-24T05:33:15.142Z,11.27
2018-04-24T05:34:15.066Z,11.29
2018-04-24T05:35:14.991Z,11.21
2018-04-24T05:36:14.919Z,11.07
2018-04-24T05:37:14.848Z,11.19
2018-04-24T05:38:14.772Z,11.02
2018-04-24T05:39:14.701Z,11.10
2018-04-24T05:40:14.626Z,11.10
2018-04-24T05:41:14.551Z,11.10
2018-04-24T05:42:14.476Z,11.07
2018-04-24T05:43:14.401Z,11.06
2018-04-24T05:44:14.329Z,11.09
2018-04-24T05:45:14.285Z,11.14
2018-04-24T05:46:14.186Z,11.15
2018-04-24T05:47:14.108Z,11.17
2018-04-24T05:48:14.035Z,11.18
2018-04-24T05:49:13.962Z,11.24
2018-04-24T05:50:13.889Z,11.15
2018-04-24T05:51:13.815Z,11.28
2018-04-24T05:52:13.742Z,11.22
2018-04-24T05:53:13.670Z,11.24
2018-04-24T05:54:13.593Z,11.33
2018-04-24T05:55:13.522Z,11.39
2018-04-24T05:56:13.449Z,11.42
2018-04-24T05:57:13.372Z,11.46
2018-04-24T05:58:13.299Z,11.46
2018-04-24T05:59:13.224Z,11.62
2018-04-24T06:00:13.152Z,11.62
2018-04-24T06:01:13.079Z,11.69
2018-04-24T06:02:13.001Z,11.65
2018-04-24T06:03:12.935Z,11.80
2018-04-24T06:04:12.859Z,11.83
2018-04-24T06:05:12.795Z,11.85
2018-04-24T06:06:12.710Z,11.96
2018-04-24T06:07:12.641Z,11.99
2018-04-24T06:08:12.566Z,12.04
2018-04-24T06:09:12.492Z,12.13
2018-04-24T06:10:12.423Z,12.20
2018-04-24T06:11:12.345Z,12.21
2018-04-24T06:12:12.271Z,12.20
2018-04-24T06:13:12.198Z,12.17
2018-04-24T06:14:12.124Z,12.29
2018-04-24T06:15:12.134Z,12.29
2018-04-24T06:16:11.982Z,12.34
2018-04-24T06:17:11.908Z,12.31
2018-04-24T06:18:11.830Z,12.37
2018-04-24T06:19:11.757Z,12.23
2018-04-24T06:20:11.687Z,12.31
2018-04-24T06:21:11.614Z,12.38
2018-04-24T06:22:11.540Z,12.34
2018-04-24T06:23:11.469Z,12.35
2018-04-24T06:24:11.393Z,12.42
2018-04-24T06:25:11.323Z,12.39
2018-04-24T06:26:11.247Z,12.47
2018-04-24T06:27:11.182Z,12.34
2018-04-24T06:28:11.105Z,12.32
2018-04-24T06:29:11.030Z,12.41
2018-04-24T06:30:10.959Z,12.39
2018-04-24T06:31:10.889Z,12.41
2018-04-24T06:32:10.811Z,12.47
2018-04-24T06:33:10.739Z,12.45
2018-04-24T06:34:10.666Z,12.42
2018-04-24T06:35:10.593Z,12.56
2018-04-24T06:36:10.519Z,12.64
2018-04-24T06:37:10.447Z,12.54
2018-04-24T06:38:10.375Z,12.75
2018-04-24T06:39:10.301Z,12.74
2018-04-24T06:40:10.228Z,12.77
2018-04-24T06:41:10.160Z,12.64
2018-04-24T06:42:10.086Z,12.70
2018-04-24T06:43:10.011Z,12.79
2018-04-24T06:44:09.938Z,12.70
2018-04-24T06:45:09.863Z,12.78
2018-04-24T06:46:09.793Z,12.74
2018-04-24T06:47:09.720Z,12.82
2018-04-24T06:48:09.648Z,12.89
2018-04-24T06:49:09.576Z,12.83
2018-04-24T06:50:09.501Z,12.87
2018-04-24T06:51:09.432Z,13.01
2018-04-24T06:52:09.364Z,13.05
2018-04-24T06:53:09.286Z,12.92
2018-04-24T06:54:09.220Z,12.87
2018-04-24T06:55:09.230Z,12.85
2018-04-24T06:56:09.072Z,12.96
2018-04-24T06:57:08.998Z,13.01
2018-04-24T06:58:08.923Z,13.07
2018-04-24T06:59:08.855Z,12.97
2018-04-24T07:00:08.782Z,12.93
2018-04-24T07:01:08.708Z,12.95
2018-04-24T07:02:08.633Z,13.03
2018-04-24T07:03:08.571Z,13.00
2018-04-24T07:04:08.492Z,12.92
2018-04-24T07:05:08.418Z,12.93
2018-04-24T07:06:08.345Z,13.05
2018-04-24T07:07:08.281Z,13.03
2018-04-24T07:08:08.205Z,12.96
2018-04-24T07:09:08.129Z,12.96
2018-04-24T07:10:08.056Z,12.95
2018-04-24T07:11:07.983Z,12.97
2018-04-24T07:12:07.912Z,12.96
2018-04-24T07:13:07.843Z,13.03
2018-04-24T07:14:07.767Z,13.14
2018-04-24T07:15:07.699Z,12.96
2018-04-24T07:16:07.623Z,13.11
2018-04-24T07:17:07.552Z,13.25
2018-04-24T07:18:07.477Z,13.17
2018-04-24T07:19:07.407Z,13.19
2018-04-24T07:20:07.335Z,13.29
2018-04-24T07:21:07.270Z,13.41
2018-04-24T07:22:07.191Z,13.26
2018-04-24T07:23:07.118Z,13.42
2018-04-24T07:24:07.046Z,13.49
2018-04-24T07:25:06.973Z,13.59
2018-04-24T07:26:06.900Z,13.71
2018-04-24T07:27:06.909Z,13.66
2018-04-24T07:28:06.757Z,13.64
2018-04-24T07:29:06.685Z,13.73
2018-04-24T07:30:06.612Z,13.82
2018-04-24T07:31:06.540Z,13.95
2018-04-24T07:32:06.468Z,13.91
2018-04-24T07:33:06.397Z,13.92
2018-04-24T07:34:06.324Z,14.00
2018-04-24T07:35:06.250Z,13.89
2018-04-24T07:36:06.181Z,13.84
2018-04-24T07:37:06.122Z,13.87
2018-04-24T07:38:06.037Z,13.96
2018-04-24T07:39:06.004Z,13.85
2018-04-24T07:40:05.893Z,13.87
2018-04-24T07:41:05.910Z,13.85
2018-04-24T07:42:05.750Z,13.63
2018-04-24T07:43:05.681Z,13.63
2018-04-24T07:44:05.605Z,13.66
2018-04-24T07:45:05.539Z,13.73
2018-04-24T07:46:05.467Z,13.82
2018-04-24T07:47:05.402Z,13.81
2018-04-24T07:48:05.316Z,13.99
2018-04-24T07:49:05.246Z,13.96
2018-04-24T07:50:05.175Z,13.95
2018-04-24T07:51:05.103Z,14.15
2018-04-24T07:52:05.031Z,14.15
2018-04-24T07:53:04.960Z,14.15
2018-04-24T07:54:04.883Z,13.97
2018-04-24T07:55:04.816Z,13.85
2018-04-24T07:56:04.743Z,14.10
2018-04-24T07:57:04.673Z,14.20
2018-04-24T07:58:04.603Z,14.22
2018-04-24T07:59:04.528Z,14.20
2018-04-24T08:00:04.463Z,14.18
2018-04-24T08:01:04.387Z,14.32
2018-04-24T08:02:04.315Z,14.39
2018-04-24T08:03:04.244Z,14.47
2018-04-24T08:04:04.180Z,14.36
2018-04-24T08:05:04.108Z,14.39
2018-04-24T08:06:04.034Z,14.18
2018-04-24T08:07:03.959Z,14.18
2018-04-24T08:08:03.887Z,14.40
2018-04-24T08:09:03.815Z,14.50
2018-04-24T08:10:03.743Z,14.77
2018-04-24T08:11:03.670Z,14.83
2018-04-24T08:12:03.603Z,15.07
2018-04-24T08:13:03.535Z,14.94
2018-04-24T08:14:03.454Z,14.75
2018-04-24T08:15:03.388Z,14.77
2018-04-24T08:16:03.317Z,14.64
2018-04-24T08:17:03.246Z,14.65
2018-04-24T08:18:03.174Z,14.64
2018-04-24T08:19:03.102Z,14.78
2018-04-24T08:20:03.031Z,14.88
2018-04-24T08:21:02.960Z,15.01
2018-04-24T08:22:02.886Z,14.99
2018-04-24T08:23:02.817Z,15.02
2018-04-24T08:24:02.746Z,15.07
2018-04-24T08:25:02.677Z,15.23
2018-04-24T08:26:02.606Z,15.39
2018-04-24T08:27:02.533Z,15.50
2018-04-24T08:28:02.462Z,15.43
2018-04-24T08:29:02.391Z,15.46
2018-04-24T08:30:02.325Z,15.49
2018-04-24T08:31:02.255Z,15.60
2018-04-24T08:32:02.180Z,15.53
2018-04-24T08:33:02.109Z,15.60
2018-04-24T08:34:02.042Z,15.46
2018-04-24T08:35:01.970Z,15.51
2018-04-24T08:36:01.896Z,15.74
2018-04-24T08:37:01.826Z,15.92
2018-04-24T08:38:01.755Z,15.94
2018-04-24T08:39:01.717Z,15.96
2018-04-24T08:40:01.632Z,16.01
2018-04-24T08:41:01.553Z,15.80
2018-04-24T08:42:01.503Z,15.69
2018-04-24T08:43:01.407Z,15.78
2018-04-24T08:44:01.327Z,15.69
2018-04-24T08:45:01.356Z,15.64
2018-04-24T08:46:01.191Z,15.46
2018-04-24T08:47:01.123Z,15.43
2018-04-24T08:48:01.116Z,15.46
2018-04-24T08:49:00.988Z,15.43
2018-04-24T08:50:00.912Z,15.19
2018-04-24T08:51:00.844Z,15.17
2018-04-24T08:52:00.776Z,15.11
2018-04-24T08:53:00.705Z,15.17
2018-04-24T08:54:00.633Z,15.25
2018-04-24T08:55:00.567Z,15.39
2018-04-24T08:56:00.494Z,15.49
2018-04-24T08:57:00.424Z,15.60
2018-04-24T08:58:00.348Z,15.76
2018-04-24T08:59:00.280Z,15.72
2018-04-24T09:00:00.214Z,15.62
2018-04-24T09:01:00.139Z,15.53
2018-04-24T09:02:00.078Z,15.62
2018-04-24T09:02:59.996Z,15.71
2018-04-24T09:03:59.925Z,15.93
2018-04-24T09:04:59.856Z,15.78
2018-04-24T09:05:59.785Z,15.84
2018-04-24T09:06:59.716Z,15.92
2018-04-24T09:07:59.643Z,15.89
2018-04-24T09:08:59.575Z,15.84
2018-04-24T09:09:59.502Z,15.89
2018-04-24T09:10:59.433Z,15.87
2018-04-24T09:11:59.363Z,16.05
2018-04-24T09:12:59.293Z,16.11
2018-04-24T09:13:59.228Z,16.07
2018-04-24T09:14:59.152Z,16.00
2018-04-24T09:15:59.088Z,15.94
2018-04-24T09:16:59.012Z,16.21
2018-04-24T09:17:58.942Z,16.04
2018-04-24T09:18:58.871Z,16.21
2018-04-24T09:19:58.801Z,16.33
2018-04-24T09:20:58.732Z,16.27
2018-04-24T09:21:58.661Z,16.12
2018-04-24T09:22:58.592Z,16.31
2018-04-24T09:23:58.522Z,16.30
2018-04-24T09:24:58.449Z,16.33
2018-04-24T09:25:58.378Z,16.30
2018-04-24T09:26:58.369Z,16.30
2018-04-24T09:27:58.238Z,16.14
2018-04-24T09:28:58.167Z,16.21
2018-04-24T09:29:58.097Z,16.02
2018-04-24T09:30:58.031Z,16.21
2018-04-24T09:31:57.959Z,16.21
2018-04-24T09:32:57.887Z,16.11
2018-04-24T09:33:57.816Z,16.09
2018-04-24T09:34:57.747Z,16.08
2018-04-24T09:35:57.676Z,16.00
2018-04-24T09:36:57.607Z,15.93
2018-04-24T09:37:57.534Z,15.96
2018-04-24T09:38:57.515Z,16.05
2018-04-24T09:39:57.402Z,16.01
2018-04-24T09:40:57.325Z,16.09
2018-04-24T09:41:57.255Z,16.11
2018-04-24T09:42:57.187Z,15.93
2018-04-24T09:43:57.151Z,16.07
2018-04-24T09:44:57.046Z,16.07
2018-04-24T09:45:57.022Z,16.09
2018-04-24T09:46:56.904Z,16.07
2018-04-24T09:47:56.835Z,16.04
2018-04-24T09:48:56.797Z,16.12
2018-04-24T09:49:56.689Z,16.02
2018-04-24T09:50:56.623Z,16.27
2018-04-24T09:51:56.552Z,16.12
2018-04-24T09:52:56.482Z,16.11
2018-04-24T09:53:56.411Z,15.94
2018-04-24T09:54:56.344Z,16.11
2018-04-24T09:55:56.274Z,16.11
2018-04-24T09:56:56.200Z,16.17
2018-04-24T09:57:56.129Z,16.30
2018-04-24T09:58:56.057Z,16.23
2018-04-24T09:59:55.986Z,16.23
2018-04-24T10:00:55.919Z,16.25
2018-04-24T10:01:55.847Z,16.24
2018-04-24T10:02:55.794Z,16.12
2018-04-24T10:03:55.706Z,16.12
2018-04-24T10:04:55.637Z,16.28
2018-04-24T10:05:55.566Z,16.24
2018-04-24T10:06:55.495Z,16.38
2018-04-24T10:07:55.423Z,16.42
2018-04-24T10:08:55.350Z,16.50
2018-04-24T10:09:55.283Z,16.58
2018-04-24T10:10:55.222Z,16.60
2018-04-24T10:11:55.142Z,16.57
2018-04-24T10:12:55.076Z,16.45
2018-04-24T10:13:55.004Z,16.52
2018-04-24T10:14:54.933Z,16.64
2018-04-24T10:15:54.861Z,16.67
2018-04-24T10:16:54.790Z,16.70
2018-04-24T10:17:54.722Z,16.71
2018-04-24T10:18:54.655Z,16.71
2018-04-24T10:19:54.580Z,16.78
2018-04-24T10:20:54.505Z,16.61
2018-04-24T10:21:54.440Z,16.75
2018-04-24T10:22:54.371Z,16.89
2018-04-24T10:23:54.299Z,17.03
2018-04-24T10:24:54.226Z,17.26
2018-04-24T10:25:54.159Z,17.26
2018-04-24T10:26:54.090Z,17.19
2018-04-24T10:27:54.019Z,17.38
2018-04-24T10:28:53.949Z,17.19
2018-04-24T10:29:53.879Z,17.31
2018-04-24T10:30:53.809Z,17.28
2018-04-24T10:31:53.756Z,17.46
2018-04-24T10:32:53.669Z,17.56
2018-04-24T10:33:53.600Z,17.52
2018-04-24T10:34:53.531Z,17.62
2018-04-24T10:35:53.459Z,17.51
2018-04-24T10:36:53.392Z,17.70
2018-04-24T10:37:53.324Z,17.68
2018-04-24T10:38:53.255Z,17.66
2018-04-24T10:39:53.186Z,17.58
2018-04-24T10:40:53.114Z,17.72
2018-04-24T10:41:53.046Z,17.74
2018-04-24T10:42:52.978Z,17.82
2018-04-24T10:43:52.977Z,17.87
2018-04-24T10:44:52.841Z,17.81
2018-04-24T10:45:52.766Z,17.86
2018-04-24T10:46:52.707Z,17.89
2018-04-24T10:47:52.626Z,17.63
2018-04-24T10:48:52.561Z,17.66
2018-04-24T10:49:52.491Z,17.62
2018-04-24T10:50:52.423Z,17.66
2018-04-24T10:51:52.398Z,17.74
2018-04-24T10:52:52.290Z,17.78
2018-04-24T10:53:52.222Z,17.96
2018-04-24T10:54:52.147Z,18.08
2018-04-24T10:55:52.098Z,18.11
2018-04-24T10:56:52.010Z,17.79
2018-04-24T10:57:51.939Z,17.81
2018-04-24T10:58:51.875Z,17.90
2018-04-24T10:59:51.808Z,17.86
2018-04-24T11:00:51.733Z,17.90
2018-04-24T11:01:51.662Z,17.87
2018-04-24T11:02:51.597Z,17.92
2018-04-24T11:03:51.527Z,17.64
2018-04-24T11:04:51.458Z,17.71
2018-04-24T11:05:51.428Z,17.59
2018-04-24T11:06:51.316Z,17.52
2018-04-24T11:07:51.249Z,17.43
2018-04-24T11:08:51.179Z,17.49
2018-04-24T11:09:51.110Z,17.51
2018-04-24T11:10:51.042Z,17.43
2018-04-24T11:11:50.975Z,17.52
2018-04-24T11:12:50.901Z,17.58
2018-04-24T11:13:50.833Z,17.48
2018-04-24T11:14:50.763Z,17.38
2018-04-24T11:15:50.702Z,17.26
2018-04-24T11:16:50.628Z,17.21
2018-04-24T11:17:50.564Z,17.22
2018-04-24T11:18:50.492Z,17.22
2018-04-24T11:19:50.423Z,17.34
2018-04-24T11:20:50.351Z,17.40
2018-04-24T11:21:50.280Z,17.59
2018-04-24T11:22:50.211Z,17.75
2018-04-24T11:23:50.139Z,17.81
2018-04-24T11:24:50.072Z,17.90
2018-04-24T11:25:50.005Z,17.93
2018-04-24T11:26:50.021Z,18.02
2018-04-24T11:27:49.872Z,17.90
2018-04-24T11:28:49.795Z,17.89
2018-04-24T11:29:49.725Z,17.72
2018-04-24T11:30:49.657Z,17.75
2018-04-24T11:31:49.588Z,17.81
2018-04-24T11:32:49.520Z,17.90
2018-04-24T11:33:49.455Z,17.99
2018-04-24T11:34:49.378Z,18.02
2018-04-24T11:35:49.312Z,18.15
2018-04-24T11:36:49.241Z,18.20
2018-04-24T11:37:49.173Z,18.23
2018-04-24T11:38:49.101Z,18.33
2018-04-24T11:39:49.031Z,18.30
2018-04-24T11:40:48.963Z,18.37
2018-04-24T11:41:48.892Z,18.32
2018-04-24T11:42:48.824Z,18.58
2018-04-24T11:43:48.765Z,18.81
2018-04-24T11:44:48.687Z,18.88
2018-04-24T11:45:48.620Z,18.78
2018-04-24T11:46:48.550Z,18.75
2018-04-24T11:47:48.480Z,18.81
2018-04-24T11:48:48.411Z,18.90
2018-04-24T11:49:48.342Z,18.84
2018-04-24T11:50:48.272Z,18.87
2018-04-24T11:51:48.208Z,18.88
2018-04-24T11:52:48.136Z,19.11
2018-04-24T11:53:48.068Z,19.21
2018-04-24T11:54:48.004Z,19.46
2018-04-24T11:55:47.933Z,19.32
2018-04-24T11:56:47.863Z,19.47
2018-04-24T11:57:47.794Z,19.80
2018-04-24T11:58:47.731Z,19.77
2018-04-24T11:59:47.659Z,19.68
2018-04-24T12:00:47.594Z,19.58
2018-04-24T12:01:47.523Z,19.74
2018-04-24T12:02:47.542Z,19.84
2018-04-24T12:03:47.388Z,20.03
2018-04-24T12:04:47.331Z,20.23
2018-04-24T12:05:47.254Z,20.05
2018-04-24T12:06:47.184Z,20.11
2018-04-24T12:07:47.127Z,20.24
2018-04-24T12:08:47.051Z,20.18
2018-04-24T12:09:46.982Z,20.11
2018-04-24T12:10:46.915Z,19.98
2018-04-24T12:11:46.848Z,20.08
2018-04-24T12:12:46.782Z,20.55
2018-04-24T12:13:46.715Z,20.72
2018-04-24T12:14:46.647Z,20.66
2018-04-24T12:15:46.640Z,20.76
2018-04-24T12:16:46.513Z,20.70
2018-04-24T12:17:46.446Z,20.98
2018-04-24T12:18:46.379Z,20.87
2018-04-24T12:19:46.315Z,20.98
2018-04-24T12:20:46.246Z,20.82
2018-04-24T12:21:46.182Z,20.70
2018-04-24T12:22:46.121Z,20.50
2018-04-24T12:23:46.048Z,20.61
2018-04-24T12:24:46.068Z,20.62
2018-04-24T12:25:45.913Z,20.70
2018-04-24T12:26:45.857Z,20.89
2018-04-24T12:27:45.782Z,20.84
2018-04-24T12:28:45.716Z,20.91
2018-04-24T12:29:45.652Z,20.98
2018-04-24T12:30:45.582Z,20.97
2018-04-24T12:31:45.517Z,20.51
2018-04-24T12:32:45.451Z,20.47
2018-04-24T12:33:45.384Z,20.47
2018-04-24T12:34:45.320Z,20.54
2018-04-24T12:35:45.252Z,20.73
2018-04-24T12:36:45.190Z,20.89
2018-04-24T12:37:45.120Z,20.85
2018-04-24T12:38:45.144Z,20.80
2018-04-24T12:39:44.988Z,21.01
2018-04-24T12:40:44.922Z,21.04
2018-04-24T12:41:44.858Z,21.06
2018-04-24T12:42:44.791Z,21.25
2018-04-24T12:43:44.722Z,21.25
2018-04-24T12:44:44.658Z,21.14
2018-04-24T12:45:44.592Z,20.69
2018-04-24T12:46:44.525Z,20.42
2018-04-24T12:47:44.458Z,20.36
2018-04-24T12:48:44.395Z,20.18
2018-04-24T12:49:44.327Z,20.26
2018-04-24T12:50:44.259Z,20.33
2018-04-24T12:51:44.237Z,20.31
2018-04-24T12:52:44.125Z,20.17
2018-04-24T12:53:44.059Z,20.39
2018-04-24T12:54:43.992Z,20.58
2018-04-24T12:55:43.929Z,20.54
2018-04-24T12:56:43.860Z,20.67
2018-04-24T12:57:43.796Z,20.33
2018-04-24T12:58:43.732Z,20.14
2018-04-24T12:59:43.659Z,20.16
2018-04-24T13:00:43.594Z,19.87
2018-04-24T13:01:43.528Z,19.83
2018-04-24T13:02:43.459Z,20.14
2018-04-24T13:03:43.399Z,20.31
2018-04-24T13:04:43.395Z,20.50
2018-04-24T13:05:43.257Z,20.66
2018-04-24T13:06:43.195Z,20.88
2018-04-24T13:07:43.125Z,20.94
2018-04-24T13:08:43.059Z,21.19
2018-04-24T13:09:43.018Z,21.13
2018-04-24T13:10:42.926Z,21.40
2018-04-24T13:11:42.862Z,21.21
2018-04-24T13:12:42.793Z,21.27
2018-04-24T13:13:42.729Z,21.22
2018-04-24T13:14:42.658Z,21.28
2018-04-24T13:15:42.589Z,21.43
2018-04-24T13:16:42.535Z,21.32
2018-04-24T13:17:42.456Z,21.56
2018-04-24T13:18:42.395Z,21.42
2018-04-24T13:19:42.325Z,21.38